Latest Weather Observations for Campania

IDT60901

Issued at 6:41 pm EST Wednesday 23 May 2018 (issued every 10 minutes, with the page automatically refreshed every 10 minutes)

About weather observations | Map of Hobart area stations | Latest observations for Hobart area | Other Formats
Station Details ID: 094212 Name: CAMPANIA (KINCORA) Lat: -42.69 Lon: 147.43 Height: 45.0 m
Data from the previous 72 hours. | See also: Recent months at Campania
Date/Time
EST
Temp
°C
App
Temp
°C
Dew
Point
°C
Rel
Hum
%
Delta-T
°C
Wind Press
QNH
hPa
Press
MSL
hPa
Rain since
9am
mm
Dir  Spd
km/h
Gust
km/h
Spd
kts
Gust
kts
23/06:30pm 13.9 9.9 4.8 54 4.2 N 15 28 8 15 - - 0.0
23/06:00pm 13.9 8.2 5.0 55 4.2 NNW 24 37 13 20 - - 0.0
23/05:30pm 13.9 8.6 5.0 55 4.2 NNW 22 39 12 21 - - 0.0
23/05:00pm 14.1 6.7 4.9 54 4.3 WNW 33 57 18 31 - - 0.0
23/04:30pm 14.4 6.7 5.5 55 4.2 W 35 56 19 30 - - 0.0
23/04:00pm 14.9 5.6 6.0 55 4.3 W 44 65 24 35 - - 0.0
23/03:30pm 15.2 7.7 6.2 55 4.4 W 35 57 19 31 - - 0.0
23/03:00pm 15.2 6.5 6.2 55 4.4 W 41 69 22 37 - - 0.0
23/02:30pm 14.9 6.2 6.0 55 4.3 W 41 63 22 34 - - 0.0
23/02:06pm 14.9 6.2 6.0 55 4.3 W 41 59 22 32 - - 0.0
23/02:00pm 15.0 7.0 5.8 54 4.4 W 37 54 20 29 - - 0.0
23/01:33pm 15.8 6.5 5.7 51 4.9 W 44 63 24 34 - - 0.0
23/01:30pm 16.0 6.3 5.6 50 5.0 W 46 63 25 34 - - 0.0
23/01:00pm 15.8 5.2 5.1 49 5.1 W 50 69 27 37 - - 0.0
23/12:32pm 15.6 4.8 5.8 52 4.7 W 52 70 28 38 - - 0.0
23/12:30pm 15.5 4.3 5.7 52 4.7 W 54 70 29 38 - - 0.0
23/12:05pm 15.7 6.4 5.9 52 4.7 W 44 69 24 37 - - 0.0
23/12:00pm 15.6 6.9 6.1 53 4.6 W 41 56 22 30 - - 0.0
23/11:31am 15.4 8.4 6.1 54 4.5 WNW 32 54 17 29 - - 0.0
23/11:30am 15.5 8.5 6.2 54 4.5 WNW 32 48 17 26 - - 0.0
23/11:00am 15.1 8.0 6.4 56 4.2 WNW 33 54 18 29 - - 0.0
23/10:30am 14.8 6.9 6.1 56 4.2 WNW 37 57 20 31 - - 0.0
23/10:12am 14.6 7.0 5.7 55 4.2 WNW 35 56 19 30 - - 0.0
23/10:00am 14.3 6.7 5.9 57 4.0 WNW 35 50 19 27 - - 0.0
23/09:35am 13.6 7.4 6.2 61 3.5 WNW 28 48 15 26 - - 0.0
23/09:30am 13.4 7.9 6.0 61 3.5 NW 24 43 13 23 - - 0.0
23/09:00am 13.2 8.7 5.9 61 3.5 N 19 33 10 18 - - 0.0
23/08:30am 13.1 8.0 6.0 62 3.4 N 22 41 12 22 - - 0.0
23/08:00am 12.9 8.3 6.7 66 3.0 NW 20 37 11 20 - - 0.0
23/07:30am 13.3 9.2 6.4 63 3.3 WNW 17 28 9 15 - - 0.0
23/07:00am 13.3 8.8 6.2 62 3.4 WNW 19 35 10 19 - - 0.0
23/06:30am 13.5 9.3 5.9 60 3.6 NNW 17 26 9 14 - - 0.0
23/06:00am 13.5 8.4 6.1 61 3.5 NW 22 39 12 21 - - 0.0
23/05:30am 13.3 9.3 6.6 64 3.2 WNW 17 33 9 18 - - 0.0
23/05:00am 13.0 9.8 6.8 66 3.0 WNW 13 20 7 11 - - 0.0
23/04:30am 12.0 9.1 6.7 70 2.5 W 11 17 6 9 - - 0.0
23/04:00am 11.2 9.0 6.1 71 2.4 NNW 7 11 4 6 - - 0.0
23/03:30am 11.2 8.6 5.9 70 2.5 N 9 15 5 8 - - 0.0
23/03:00am 10.6 8.3 5.6 71 2.3 N 7 11 4 6 - - 0.0
23/02:30am 10.6 7.0 5.2 69 2.5 N 13 19 7 10 - - 0.0
23/02:00am 9.8 5.0 4.8 71 2.2 N 19 20 10 11 - - 0.0
23/01:30am 11.2 7.2 4.9 65 2.9 NNW 15 20 8 11 - - 0.0
23/01:00am 10.9 6.8 4.4 64 2.9 NW 15 22 8 12 - - 0.0
23/12:30am 10.9 5.8 3.9 62 3.1 WNW 20 30 11 16 - - 0.0
23/12:00am 9.8 5.9 3.5 65 2.7 N 13 20 7 11 - - 0.0
 
Date/Time
EST
Temp
°C
App
Temp
°C
Dew
Point
°C
Rel
Hum
%
Delta-T
°C
Wind Press
QNH
hPa
Press
MSL
hPa
Rain since
9am
mm
Dir  Spd
km/h
Gust
km/h
Spd
kts
Gust
kts
22/11:30pm 9.9 5.5 2.5 60 3.2 NNE 15 28 8 15 - - 0.0
22/11:00pm 9.4 6.6 2.0 60 3.1 NW 6 11 3 6 - - 0.0
22/10:30pm 9.5 4.3 2.4 61 3.0 W 19 26 10 14 - - 0.0
22/10:00pm 9.3 5.9 1.9 60 3.1 NW 9 11 5 6 - - 0.0
22/09:30pm 9.8 5.6 1.9 58 3.3 WNW 13 20 7 11 - - 0.0
22/09:00pm 9.7 5.5 1.8 58 3.3 NW 13 20 7 11 - - 0.0
22/08:30pm 10.0 5.5 1.9 57 3.4 WNW 15 24 8 13 - - 0.0
22/08:00pm 10.0 5.5 2.4 59 3.2 NW 15 22 8 12 - - 0.0
22/07:30pm 10.5 5.2 2.1 56 3.6 W 19 28 10 15 - - 0.0
22/07:00pm 10.3 5.8 2.4 58 3.4 W 15 26 8 14 - - 0.0
22/06:30pm 10.5 5.2 2.1 56 3.6 W 19 30 10 16 - - 0.0
22/06:00pm 10.6 5.6 1.4 53 3.8 W 17 26 9 14 - - 0.0
22/05:30pm 11.2 5.3 1.5 51 4.1 W 22 37 12 20 - - 0.0
22/05:00pm 11.5 7.0 2.3 53 4.0 WNW 15 22 8 12 - - 0.0
22/04:30pm 12.1 6.7 2.6 52 4.1 NW 20 30 11 16 - - 0.0
22/04:00pm 12.7 7.9 2.8 51 4.4 W 17 30 9 16 - - 0.0
22/03:30pm 13.2 9.5 2.1 47 4.8 ENE 11 22 6 12 - - 0.0
22/03:00pm 13.7 8.8 2.0 45 5.1 NNW 17 37 9 20 - - 0.0
22/02:30pm 13.9 10.4 1.5 43 5.4 WSW 9 46 5 25 - - 0.0
22/02:00pm 14.1 9.6 2.4 45 5.2 SSW 15 37 8 20 - - 0.0
22/01:30pm 14.0 8.8 2.6 46 5.1 WSW 19 44 10 24 - - 0.0
22/01:00pm 14.1 8.0 2.7 46 5.1 W 24 41 13 22 - - 0.0
22/12:36pm 13.9 7.0 2.8 47 4.9 W 28 46 15 25 - - 0.0
22/12:30pm 13.9 7.8 2.5 46 5.0 W 24 50 13 27 - - 0.0
22/12:00pm 13.8 3.6 3.0 48 4.8 W 46 72 25 39 - - 0.0
22/11:30am 13.6 2.6 2.8 48 4.8 W 50 70 27 38 - - 0.0
22/11:00am 13.3 2.9 2.2 47 4.8 W 46 69 25 37 - - 0.0
22/10:30am 12.9 2.0 1.6 46 4.9 W 48 67 26 36 - - 0.0
22/10:00am 12.7 2.7 2.3 49 4.5 W 44 72 24 39 - - 0.0
22/09:54am 12.7 3.7 2.6 50 4.4 W 39 57 21 31 - - 0.0
22/09:30am 12.6 5.0 3.0 52 4.2 W 32 44 17 24 - - 0.0
22/09:08am 12.6 5.5 3.3 53 4.1 W 30 48 16 26 - - 0.0
22/09:00am 12.5 4.8 3.2 53 4.1 W 33 46 18 25 - - 0.0
22/08:31am 12.1 4.9 2.8 53 4.1 W 30 59 16 32 - - 0.0
22/08:30am 12.1 4.9 3.1 54 4.0 W 30 44 16 24 - - 0.0
22/08:00am 11.7 4.5 3.0 55 3.8 W 30 48 16 26 - - 0.0
22/07:30am 11.8 4.2 3.1 55 3.8 W 32 56 17 30 - - 0.0
22/07:00am 11.9 4.8 3.4 56 3.8 W 30 50 16 27 - - 0.0
22/06:37am 12.1 5.3 3.3 55 3.9 W 28 52 15 28 - - 0.0
22/06:30am 12.1 6.4 2.8 53 4.1 W 22 44 12 24 - - 0.0
22/06:00am 12.2 6.0 2.4 51 4.3 W 24 35 13 19 - - 0.0
22/05:30am 12.7 5.1 2.6 50 4.4 W 32 56 17 30 - - 0.0
22/05:16am 12.7 5.5 3.1 52 4.3 W 30 61 16 33 - - 0.0
22/05:13am 12.8 3.9 3.2 52 4.3 WSW 39 61 21 33 - - 0.0
22/05:00am 12.9 5.2 3.6 53 4.2 W 33 61 18 33 - - 0.0
22/04:30am 12.9 6.2 3.8 54 4.1 W 28 59 15 32 - - 0.0
22/04:16am 12.6 5.9 3.8 55 4.0 W 28 54 15 29 - - 0.0
22/04:00am 12.4 6.7 3.1 53 4.1 W 22 33 12 18 - - 0.0
22/03:51am 12.5 7.8 2.9 52 4.2 NW 17 65 9 35 - - 0.0
22/03:30am 12.6 4.1 3.0 52 4.2 W 37 61 20 33 - - 0.0
22/03:04am 12.7 1.6 2.6 50 4.4 W 50 72 27 39 - - 0.0
22/03:00am 12.7 7.4 2.8 51 4.4 WNW 20 69 11 37 - - 0.0
22/02:30am 13.1 3.2 2.6 49 4.6 W 44 69 24 37 - - 0.0
22/02:00am 13.6 4.7 5.0 56 4.0 W 41 74 22 40 - - 0.0
22/01:43am 14.0 4.7 4.9 54 4.2 W 43 80 23 43 - - 0.0
22/01:30am 14.1 6.6 4.7 53 4.4 W 33 57 18 31 - - 0.0
22/01:21am 14.0 7.5 4.9 54 4.2 W 28 57 15 31 - - 0.0
22/01:00am 13.9 9.3 5.8 58 3.8 NW 19 65 10 35 - - 0.0
22/12:47am 14.5 6.4 5.3 54 4.3 W 37 74 20 40 - - 0.0
22/12:30am 14.5 8.3 6.3 58 4.0 W 28 52 15 28 - - 0.0
22/12:08am 14.5 8.0 6.6 59 3.8 WNW 30 50 16 27 - - 0.0
22/12:00am 14.5 10.9 6.6 59 3.8 W 15 39 8 21 - - 0.0
 
Date/Time
EST
Temp
°C
App
Temp
°C
Dew
Point
°C
Rel
Hum
%
Delta-T
°C
Wind Press
QNH
hPa
Press
MSL
hPa
Rain since
9am
mm
Dir  Spd
km/h
Gust
km/h
Spd
kts
Gust
kts
21/11:30pm 14.4 11.2 6.7 60 3.7 WNW 13 26 7 14 - - 0.0
21/11:00pm 14.2 10.2 6.6 60 3.7 NNE 17 37 9 20 - - 0.0
21/10:30pm 14.4 11.9 6.5 59 3.8 NE 9 20 5 11 - - 0.0
21/10:00pm 14.3 11.0 6.4 59 3.8 NW 13 30 7 16 - - 0.0
21/09:30pm 14.6 10.9 6.2 57 4.0 W 15 32 8 17 - - 0.0
21/09:00pm 14.8 10.2 6.6 58 4.0 W 20 39 11 21 - - 0.0
21/08:30pm 14.8 9.5 6.6 58 4.0 W 24 41 13 22 - - 0.0
21/08:00pm 14.9 9.2 6.7 58 4.0 W 26 37 14 20 - - 0.0
21/07:48pm 14.8 8.8 6.9 59 3.9 W 28 46 15 25 - - 0.0
21/07:30pm 14.9 7.9 6.2 56 4.2 WNW 32 46 17 25 - - 0.0
21/07:00pm 14.1 8.7 6.2 59 3.8 WSW 24 35 13 19 - - 0.0
21/06:35pm 14.3 7.7 6.2 58 3.9 WSW 30 48 16 26 - - 0.0
21/06:30pm 13.9 7.4 6.5 61 3.6 WSW 30 37 16 20 - - 0.0
21/06:00pm 13.8 7.2 6.2 60 3.6 W 30 41 16 22 - - 0.0
21/05:30pm 14.0 7.4 5.9 58 3.9 W 30 41 16 22 - - 0.0
21/05:00pm 14.0 6.9 5.6 57 4.0 W 32 50 17 27 - - 0.0
21/04:32pm 14.0 7.2 5.1 55 4.2 W 30 48 16 26 - - 0.0
21/04:30pm 14.1 6.9 5.2 55 4.2 W 32 48 17 26 - - 0.0
21/04:07pm 14.1 6.4 5.2 55 4.2 W 35 56 19 30 - - 0.0
21/04:00pm 14.0 6.7 5.4 56 4.1 W 33 50 18 27 - - 0.0
21/03:31pm 14.2 4.6 4.5 52 4.5 W 44 76 24 41 - - 0.0
21/03:30pm 14.1 4.6 4.7 53 4.4 W 44 61 24 33 - - 0.0
21/03:17pm 14.4 5.0 4.4 51 4.6 W 43 61 23 33 - - 0.0
21/03:15pm 14.4 4.9 4.7 52 4.5 W 44 59 24 32 - - 0.0
21/03:02pm 14.5 7.4 5.3 54 4.3 WNW 32 56 17 30 - - 0.0
21/03:00pm 14.3 7.2 5.4 55 4.2 WNW 32 48 17 26 - - 0.0
21/02:31pm 15.2 9.1 6.5 56 4.2 WNW 28 46 15 25 - - 0.0
21/02:30pm 15.0 8.3 5.8 54 4.4 WNW 30 46 16 25 - - 0.0
21/02:00pm 14.7 8.2 6.3 57 4.1 WNW 30 44 16 24 - - 0.0
21/01:30pm 14.8 8.2 5.9 55 4.3 WNW 30 52 16 28 - - 0.0
21/01:02pm 14.6 8.3 5.7 55 4.2 WNW 28 48 15 26 - - 0.0
21/01:00pm 14.7 8.8 6.0 56 4.2 WNW 26 43 14 23 - - 0.0
21/12:50pm 14.7 8.6 6.5 58 4.0 NW 28 46 15 25 - - 0.0
21/12:30pm 13.8 7.2 5.9 59 3.8 NW 30 44 16 24 - - 0.0
21/12:00pm 13.0 7.5 5.7 61 3.4 NW 24 33 13 18 - - 0.0
21/11:30am 12.9 8.1 5.6 61 3.4 NW 20 33 11 18 - - 0.0
21/10:00am 12.4 7.0 4.4 58 3.6 NNW 22 35 12 19 - - 0.0
21/09:30am 12.3 7.1 3.8 56 3.8 NW 20 41 11 22 - - 0.0
21/09:00am 12.3 7.1 3.5 55 3.9 WNW 20 30 11 16 - - 0.8
21/08:30am 11.9 6.7 3.4 56 3.8 WNW 20 37 11 20 - - 0.8
21/08:01am 11.9 5.1 2.9 54 3.9 W 28 46 15 25 - - 0.8
21/08:00am 11.9 4.7 2.9 54 3.9 W 30 46 16 25 - - 0.8
21/07:30am 11.8 2.0 3.1 55 3.8 W 44 69 24 37 - - 0.8
21/07:28am 11.8 2.2 3.3 56 3.8 W 43 69 23 37 - - 0.8
21/07:04am 11.8 5.0 3.3 56 3.8 W 28 46 15 25 - - 0.8
21/07:00am 11.6 5.6 3.1 56 3.7 W 24 41 13 22 - - 0.8
21/06:30am 11.3 6.1 3.6 59 3.4 W 20 32 11 17 - - 0.8
21/06:00am 10.9 6.7 3.7 61 3.2 W 15 28 8 15 - - 0.8
21/05:30am 11.4 5.8 3.7 59 3.4 W 22 35 12 19 - - 0.8
21/05:00am 11.3 6.2 4.3 62 3.1 W 20 39 11 21 - - 0.8
21/04:30am 11.2 6.4 4.4 63 3.1 W 19 41 10 22 - - 0.8
21/04:00am 11.0 6.2 4.9 66 2.8 W 19 26 10 14 - - 0.8
21/03:30am 11.2 7.2 4.7 64 2.9 W 15 24 8 13 - - 0.8
21/03:00am 11.2 6.4 4.4 63 3.1 W 19 28 10 15 - - 0.8
21/02:30am 11.1 6.2 4.3 63 3.1 W 19 26 10 14 - - 0.8
21/02:00am 11.2 6.4 4.4 63 3.1 W 19 32 10 17 - - 0.8
21/01:30am 11.2 6.4 4.4 63 3.1 WNW 19 28 10 15 - - 0.8
21/01:00am 11.4 6.6 4.8 64 3.0 W 19 26 10 14 - - 0.8
21/12:30am 11.1 6.7 4.6 64 2.9 W 17 35 9 19 - - 0.8
21/12:00am 11.2 7.3 5.5 68 2.6 NW 15 22 8 12 - - 0.8
 
Date/Time
EST
Temp
°C
App
Temp
°C
Dew
Point
°C
Rel
Hum
%
Delta-T
°C
Wind Press
QNH
hPa
Press
MSL
hPa
Rain since
9am
mm
Dir  Spd
km/h
Gust
km/h
Spd
kts
Gust
kts
20/11:30pm 11.5 8.1 5.8 68 2.7 W 13 24 7 13 - - 0.8
20/11:00pm 11.5 7.5 6.8 73 2.2 W 17 33 9 18 - - 0.8
20/10:30pm 11.2 9.4 7.9 80 1.6 W 7 13 4 7 - - 0.8
20/10:00pm 11.6 9.1 8.1 79 1.7 WNW 11 22 6 12 - - 0.8
20/09:30pm 12.0 8.3 8.1 77 1.9 WNW 17 24 9 13 - - 0.6
20/09:00pm 11.6 9.0 7.9 78 1.8 NW 11 28 6 15 - - 0.4
20/08:30pm 11.5 8.6 8.2 80 1.6 NW 13 15 7 8 - - 0.4
20/08:00pm 12.2 9.7 8.3 77 1.9 NNW 11 19 6 10 - - 0.2
20/07:30pm 11.5 9.0 8.0 79 1.7 N 11 13 6 7 - - 0.2
20/07:00pm 11.3 9.1 8.0 80 1.6 N 9 13 5 7 - - 0.2

Latest Capital City Observations: Canberra | Sydney | Melbourne | Brisbane | Adelaide | Perth | Hobart | Darwin

Other Formats:

Comma delimited format used in spreadsheet applications
http://www.bom.gov.au/fwo/IDT60901/IDT60901.95972.axf

JavaScript Object Notation format (JSON) in row-major order
http://www.bom.gov.au/fwo/IDT60901/IDT60901.95972.json